UTA230 USHS-USTR
Flight info
| Callsign | UTA230 |
|---|---|
| Flight time | 1h 14m |
| Altitude | 15000 |
| Route | N0240F150 OLEMI A120 PIGUR N167 DELEN |
| Aircraft | AN24/M-I/L |
Departure
| Time | 2026-05-07 13:42 |
|---|---|
| Airport | Sovetskiy Airport (USHS) |
Arrival
| Time | 2026-05-07 14:56 |
|---|---|
| Airport | Roshchino International Airport (USTR) |
| Time | Latitude | Longitude | Altitude | Speed | Heading |
|---|---|---|---|---|---|
| 2026-05-07 13:02 | 61.32589 | 63.60746 | 351 ft | 0 kts | 52° |
| 2026-05-07 13:36 | 61.32592 | 63.60754 | 351 ft | 6 kts | 52° |
| 2026-05-07 13:36 | 61.32618 | 63.60775 | 352 ft | 5 kts | 336° |
| 2026-05-07 13:36 | 61.32649 | 63.60688 | 352 ft | 5 kts | 231° |
| 2026-05-07 13:37 | 61.32605 | 63.60578 | 352 ft | 11 kts | 233° |
| 2026-05-07 13:37 | 61.32597 | 63.60556 | 351 ft | 0 kts | 233° |
| 2026-05-07 13:38 | 61.32579 | 63.60506 | 351 ft | 13 kts | 232° |
| 2026-05-07 13:38 | 61.32527 | 63.60369 | 350 ft | 14 kts | 226° |
| 2026-05-07 13:38 | 61.32457 | 63.60410 | 349 ft | 22 kts | 141° |
| 2026-05-07 13:38 | 61.32258 | 63.60730 | 348 ft | 39 kts | 141° |
| 2026-05-07 13:39 | 61.32029 | 63.61098 | 346 ft | 38 kts | 144° |
| 2026-05-07 13:39 | 61.31840 | 63.61407 | 344 ft | 36 kts | 145° |
| 2026-05-07 13:39 | 61.31678 | 63.61657 | 344 ft | 22 kts | 136° |
| 2026-05-07 13:39 | 61.31610 | 63.61835 | 344 ft | 10 kts | 101° |
| 2026-05-07 13:40 | 61.31592 | 63.61825 | 344 ft | 5 kts | 297° |
| 2026-05-07 13:40 | 61.31651 | 63.61709 | 344 ft | 14 kts | 323° |
| 2026-05-07 13:40 | 61.31694 | 63.61639 | 344 ft | 1 kts | 322° |
| 2026-05-07 13:40 | 61.31695 | 63.61638 | 344 ft | 0 kts | 322° |
| 2026-05-07 13:41 | 61.31789 | 63.61486 | 344 ft | 50 kts | 323° |
| 2026-05-07 13:42 | 61.32229 | 63.60778 | 349 ft | 104 kts | 322° |
| 2026-05-07 13:42 | 61.32879 | 63.59725 | 455 ft | 131 kts | 323° |
| 2026-05-07 13:42 | 61.33642 | 63.58491 | 709 ft | 147 kts | 322° |
| 2026-05-07 13:42 | 61.34470 | 63.57130 | 1037 ft | 156 kts | 322° |
| 2026-05-07 13:43 | 61.35358 | 63.55830 | 1408 ft | 161 kts | 333° |
| 2026-05-07 13:43 | 61.36478 | 63.55492 | 1800 ft | 170 kts | 4° |
| 2026-05-07 13:43 | 61.37561 | 63.56527 | 2194 ft | 179 kts | 32° |
| 2026-05-07 13:43 | 61.38329 | 63.58601 | 2574 ft | 188 kts | 60° |
| 2026-05-07 13:44 | 61.38548 | 63.61332 | 2921 ft | 198 kts | 91° |
| 2026-05-07 13:44 | 61.38080 | 63.64041 | 3204 ft | 206 kts | 122° |
| 2026-05-07 13:44 | 61.37016 | 63.66065 | 3487 ft | 208 kts | 154° |
| 2026-05-07 13:44 | 61.35651 | 63.66750 | 3811 ft | 201 kts | 186° |
| 2026-05-07 13:45 | 61.34300 | 63.66367 | 4172 ft | 196 kts | 195° |
| 2026-05-07 13:45 | 61.32988 | 63.65892 | 4582 ft | 191 kts | 197° |
| 2026-05-07 13:45 | 61.31689 | 63.65342 | 4846 ft | 194 kts | 198° |
| 2026-05-07 13:45 | 61.30374 | 63.64685 | 5174 ft | 192 kts | 200° |
| 2026-05-07 13:46 | 61.29056 | 63.64264 | 5496 ft | 197 kts | 184° |
| 2026-05-07 13:46 | 61.27727 | 63.64943 | 5777 ft | 205 kts | 159° |
| 2026-05-07 13:46 | 61.26428 | 63.66244 | 6087 ft | 205 kts | 157° |
| 2026-05-07 13:46 | 61.25176 | 63.67536 | 6412 ft | 204 kts | 156° |
| 2026-05-07 13:47 | 61.23904 | 63.68874 | 6639 ft | 208 kts | 156° |
| 2026-05-07 13:47 | 61.22622 | 63.70201 | 6957 ft | 206 kts | 157° |
| 2026-05-07 13:47 | 61.21346 | 63.71506 | 7273 ft | 205 kts | 157° |
| 2026-05-07 13:47 | 61.20063 | 63.72826 | 7585 ft | 204 kts | 157° |
| 2026-05-07 13:48 | 61.18796 | 63.74131 | 7883 ft | 204 kts | 157° |
| 2026-05-07 13:48 | 61.17540 | 63.75420 | 8165 ft | 205 kts | 158° |
| 2026-05-07 13:48 | 61.16253 | 63.76738 | 8448 ft | 206 kts | 158° |
| 2026-05-07 13:48 | 61.14988 | 63.78073 | 8736 ft | 206 kts | 155° |
| 2026-05-07 13:49 | 61.13737 | 63.79473 | 9013 ft | 207 kts | 155° |
| 2026-05-07 13:49 | 61.12472 | 63.80886 | 9281 ft | 208 kts | 155° |
| 2026-05-07 13:49 | 61.11198 | 63.82307 | 9546 ft | 208 kts | 155° |
| 2026-05-07 13:49 | 61.09926 | 63.83721 | 9802 ft | 209 kts | 155° |
| 2026-05-07 13:50 | 61.08648 | 63.85139 | 10058 ft | 210 kts | 155° |
| 2026-05-07 13:50 | 61.07352 | 63.86575 | 10311 ft | 211 kts | 156° |
| 2026-05-07 13:50 | 61.06072 | 63.87996 | 10555 ft | 212 kts | 156° |
| 2026-05-07 13:50 | 61.04771 | 63.89436 | 10794 ft | 213 kts | 157° |
| 2026-05-07 13:51 | 61.03474 | 63.90869 | 11025 ft | 214 kts | 158° |
| 2026-05-07 13:51 | 61.02167 | 63.92316 | 11254 ft | 214 kts | 158° |
| 2026-05-07 13:51 | 61.00841 | 63.93780 | 11492 ft | 215 kts | 159° |
| 2026-05-07 13:51 | 60.99536 | 63.95219 | 11718 ft | 215 kts | 160° |
| 2026-05-07 13:52 | 60.98226 | 63.96662 | 11933 ft | 216 kts | 160° |
| 2026-05-07 13:52 | 60.96899 | 63.98125 | 12146 ft | 216 kts | 161° |
| 2026-05-07 13:52 | 60.95578 | 63.99581 | 12359 ft | 216 kts | 162° |
| 2026-05-07 13:52 | 60.94255 | 64.01036 | 12566 ft | 216 kts | 162° |
| 2026-05-07 13:53 | 60.92936 | 64.02486 | 12768 ft | 217 kts | 162° |
| 2026-05-07 13:53 | 60.91647 | 64.04079 | 12984 ft | 220 kts | 157° |
| 2026-05-07 13:53 | 60.90366 | 64.05860 | 13155 ft | 222 kts | 157° |
| 2026-05-07 13:53 | 60.89095 | 64.07622 | 13305 ft | 224 kts | 158° |
| 2026-05-07 13:54 | 60.87809 | 64.09405 | 13461 ft | 226 kts | 158° |
| 2026-05-07 13:54 | 60.86494 | 64.11224 | 13623 ft | 227 kts | 158° |
| 2026-05-07 13:54 | 60.85193 | 64.13022 | 13789 ft | 228 kts | 158° |
| 2026-05-07 13:54 | 60.83876 | 64.14842 | 13947 ft | 229 kts | 159° |
| 2026-05-07 13:55 | 60.82570 | 64.16642 | 14093 ft | 230 kts | 158° |
| 2026-05-07 13:55 | 60.81228 | 64.18491 | 14246 ft | 231 kts | 158° |
| 2026-05-07 13:55 | 60.79897 | 64.20322 | 14406 ft | 231 kts | 158° |
| 2026-05-07 13:55 | 60.78573 | 64.22142 | 14562 ft | 232 kts | 158° |
| 2026-05-07 13:56 | 60.77244 | 64.23970 | 14719 ft | 232 kts | 158° |
| 2026-05-07 13:56 | 60.75911 | 64.25803 | 14872 ft | 232 kts | 159° |
| 2026-05-07 13:56 | 60.74567 | 64.27647 | 14973 ft | 235 kts | 158° |
| 2026-05-07 13:56 | 60.73172 | 64.29543 | 14982 ft | 243 kts | 158° |
| 2026-05-07 13:57 | 60.71764 | 64.31457 | 15010 ft | 247 kts | 158° |
| 2026-05-07 13:57 | 60.70332 | 64.33411 | 15014 ft | 250 kts | 158° |
| 2026-05-07 13:57 | 60.68877 | 64.35344 | 15009 ft | 253 kts | 159° |
| 2026-05-07 13:57 | 60.67363 | 64.37264 | 14994 ft | 256 kts | 159° |
| 2026-05-07 13:58 | 60.65865 | 64.39153 | 14994 ft | 258 kts | 159° |
| 2026-05-07 13:58 | 60.64339 | 64.41076 | 14979 ft | 260 kts | 159° |
| 2026-05-07 13:58 | 60.62793 | 64.43024 | 15001 ft | 261 kts | 159° |
| 2026-05-07 13:58 | 60.61256 | 64.44962 | 15000 ft | 261 kts | 159° |
| 2026-05-07 13:59 | 60.59706 | 64.46912 | 15004 ft | 262 kts | 159° |
| 2026-05-07 13:59 | 60.58160 | 64.48851 | 14996 ft | 263 kts | 159° |
| 2026-05-07 13:59 | 60.56599 | 64.50808 | 15007 ft | 263 kts | 159° |
| 2026-05-07 13:59 | 60.55052 | 64.52747 | 14996 ft | 265 kts | 159° |
| 2026-05-07 14:00 | 60.53484 | 64.54707 | 14995 ft | 265 kts | 159° |
| 2026-05-07 14:00 | 60.51906 | 64.56511 | 15028 ft | 260 kts | 163° |
| 2026-05-07 14:00 | 60.50285 | 64.58188 | 14979 ft | 262 kts | 164° |
| 2026-05-07 14:00 | 60.48664 | 64.59831 | 14960 ft | 263 kts | 164° |
| 2026-05-07 14:01 | 60.47055 | 64.61472 | 15031 ft | 259 kts | 164° |
| 2026-05-07 14:01 | 60.45444 | 64.63110 | 14990 ft | 262 kts | 164° |
| 2026-05-07 14:01 | 60.43793 | 64.64774 | 14935 ft | 264 kts | 164° |
| 2026-05-07 14:01 | 60.42180 | 64.66412 | 15021 ft | 259 kts | 165° |
| 2026-05-07 14:02 | 60.40560 | 64.68057 | 14998 ft | 260 kts | 165° |
| 2026-05-07 14:02 | 60.38939 | 64.69688 | 14940 ft | 262 kts | 165° |
| 2026-05-07 14:02 | 60.37341 | 64.71305 | 15004 ft | 259 kts | 165° |
| 2026-05-07 14:02 | 60.35739 | 64.72928 | 15019 ft | 258 kts | 165° |
| 2026-05-07 14:03 | 60.34121 | 64.74551 | 14937 ft | 262 kts | 165° |
| 2026-05-07 14:03 | 60.32507 | 64.76173 | 14974 ft | 259 kts | 165° |
| 2026-05-07 14:03 | 60.30905 | 64.77791 | 15033 ft | 257 kts | 165° |
| 2026-05-07 14:03 | 60.29300 | 64.79398 | 14967 ft | 260 kts | 165° |
| 2026-05-07 14:04 | 60.27679 | 64.81018 | 14953 ft | 260 kts | 165° |
| 2026-05-07 14:04 | 60.26077 | 64.82629 | 15037 ft | 257 kts | 165° |
| 2026-05-07 14:04 | 60.24473 | 64.84235 | 14982 ft | 259 kts | 165° |
| 2026-05-07 14:04 | 60.22842 | 64.85856 | 14928 ft | 261 kts | 165° |
| 2026-05-07 14:05 | 60.21249 | 64.87450 | 15000 ft | 257 kts | 165° |
| 2026-05-07 14:05 | 60.19660 | 64.89040 | 15017 ft | 257 kts | 165° |
| 2026-05-07 14:05 | 60.18058 | 64.90630 | 14942 ft | 260 kts | 165° |
| 2026-05-07 14:05 | 60.16442 | 64.92235 | 14969 ft | 259 kts | 165° |
| 2026-05-07 14:06 | 60.14841 | 64.93825 | 15025 ft | 255 kts | 166° |
| 2026-05-07 14:06 | 60.13201 | 64.94867 | 14985 ft | 242 kts | 185° |
| 2026-05-07 14:06 | 60.11568 | 64.95011 | 14971 ft | 232 kts | 194° |
| 2026-05-07 14:06 | 60.09940 | 64.94919 | 14949 ft | 233 kts | 195° |
| 2026-05-07 14:07 | 60.08347 | 64.94823 | 14985 ft | 231 kts | 195° |
| 2026-05-07 14:07 | 60.06751 | 64.94740 | 15043 ft | 228 kts | 195° |
| 2026-05-07 14:07 | 60.05161 | 64.94604 | 14962 ft | 231 kts | 197° |
| 2026-05-07 14:07 | 60.03578 | 64.94401 | 14944 ft | 231 kts | 197° |
| 2026-05-07 14:08 | 60.01998 | 64.94206 | 15042 ft | 226 kts | 197° |
| 2026-05-07 14:08 | 60.00410 | 64.94005 | 14990 ft | 229 kts | 197° |
| 2026-05-07 14:08 | 59.98831 | 64.93792 | 14935 ft | 231 kts | 197° |
| 2026-05-07 14:08 | 59.97249 | 64.93589 | 15013 ft | 227 kts | 197° |
| 2026-05-07 14:09 | 59.95691 | 64.93349 | 15037 ft | 225 kts | 199° |
| 2026-05-07 14:09 | 59.94117 | 64.93034 | 14929 ft | 230 kts | 199° |
| 2026-05-07 14:09 | 59.92532 | 64.92716 | 14964 ft | 228 kts | 198° |
| 2026-05-07 14:09 | 59.90954 | 64.92413 | 15018 ft | 226 kts | 199° |
| 2026-05-07 14:10 | 59.89386 | 64.92101 | 14960 ft | 229 kts | 199° |
| 2026-05-07 14:10 | 59.87801 | 64.91780 | 14933 ft | 230 kts | 199° |
| 2026-05-07 14:10 | 59.86238 | 64.91478 | 15032 ft | 225 kts | 199° |
| 2026-05-07 14:10 | 59.84686 | 64.91177 | 15001 ft | 227 kts | 199° |
| 2026-05-07 14:11 | 59.83112 | 64.90859 | 14931 ft | 230 kts | 198° |
| 2026-05-07 14:11 | 59.81535 | 64.90547 | 15001 ft | 226 kts | 198° |
| 2026-05-07 14:11 | 59.79967 | 64.90248 | 15031 ft | 225 kts | 199° |
| 2026-05-07 14:11 | 59.78406 | 64.89939 | 14943 ft | 230 kts | 198° |
| 2026-05-07 14:12 | 59.76814 | 64.89624 | 14983 ft | 227 kts | 198° |
| 2026-05-07 14:12 | 59.75254 | 64.89327 | 15031 ft | 225 kts | 198° |
| 2026-05-07 14:12 | 59.73680 | 64.89020 | 14954 ft | 229 kts | 198° |
| 2026-05-07 14:12 | 59.72097 | 64.88704 | 14945 ft | 229 kts | 198° |
| 2026-05-07 14:13 | 59.70537 | 64.88406 | 15032 ft | 225 kts | 198° |
| 2026-05-07 14:13 | 59.68975 | 64.88103 | 14986 ft | 228 kts | 198° |
| 2026-05-07 14:13 | 59.67399 | 64.87788 | 14942 ft | 230 kts | 198° |
| 2026-05-07 14:13 | 59.65815 | 64.87482 | 15022 ft | 226 kts | 198° |
| 2026-05-07 14:14 | 59.64254 | 64.87186 | 15018 ft | 227 kts | 198° |
| 2026-05-07 14:14 | 59.62662 | 64.86871 | 14944 ft | 230 kts | 198° |
| 2026-05-07 14:14 | 59.61081 | 64.86565 | 14994 ft | 228 kts | 198° |
| 2026-05-07 14:14 | 59.59526 | 64.86272 | 15027 ft | 226 kts | 198° |
| 2026-05-07 14:15 | 59.57956 | 64.85963 | 14949 ft | 230 kts | 198° |
| 2026-05-07 14:15 | 59.56359 | 64.85650 | 14965 ft | 228 kts | 198° |
| 2026-05-07 14:15 | 59.54802 | 64.85357 | 15040 ft | 225 kts | 197° |
| 2026-05-07 14:15 | 59.53239 | 64.85053 | 14967 ft | 229 kts | 198° |
| 2026-05-07 14:16 | 59.51653 | 64.84739 | 14952 ft | 229 kts | 198° |
| 2026-05-07 14:16 | 59.50079 | 64.84441 | 15036 ft | 226 kts | 198° |
| 2026-05-07 14:16 | 59.48513 | 64.84143 | 14997 ft | 228 kts | 198° |
| 2026-05-07 14:16 | 59.46929 | 64.83832 | 14937 ft | 231 kts | 197° |
| 2026-05-07 14:17 | 59.45344 | 64.83528 | 15019 ft | 227 kts | 197° |
| 2026-05-07 14:17 | 59.43794 | 64.83237 | 15024 ft | 227 kts | 197° |
| 2026-05-07 14:17 | 59.42211 | 64.82927 | 14962 ft | 231 kts | 198° |
| 2026-05-07 14:17 | 59.40612 | 64.82661 | 15013 ft | 230 kts | 195° |
| 2026-05-07 14:18 | 59.39018 | 64.82552 | 15061 ft | 229 kts | 193° |
| 2026-05-07 14:18 | 59.37412 | 64.82468 | 14958 ft | 235 kts | 193° |
| 2026-05-07 14:18 | 59.35793 | 64.82423 | 14973 ft | 234 kts | 192° |
| 2026-05-07 14:18 | 59.34161 | 64.82399 | 15033 ft | 231 kts | 192° |
| 2026-05-07 14:19 | 59.32552 | 64.82368 | 14972 ft | 234 kts | 192° |
| 2026-05-07 14:19 | 59.30916 | 64.82330 | 14950 ft | 235 kts | 192° |
| 2026-05-07 14:19 | 59.29309 | 64.82302 | 15044 ft | 231 kts | 192° |
| 2026-05-07 14:19 | 59.27708 | 64.82274 | 15001 ft | 233 kts | 192° |
| 2026-05-07 14:20 | 59.26070 | 64.82233 | 14932 ft | 237 kts | 192° |
| 2026-05-07 14:20 | 59.24444 | 64.82204 | 15009 ft | 233 kts | 191° |
| 2026-05-07 14:20 | 59.22831 | 64.82181 | 15029 ft | 232 kts | 191° |
| 2026-05-07 14:20 | 59.21224 | 64.82125 | 14948 ft | 235 kts | 192° |
| 2026-05-07 14:21 | 59.19598 | 64.82040 | 14998 ft | 232 kts | 192° |
| 2026-05-07 14:21 | 59.17990 | 64.81962 | 15050 ft | 230 kts | 192° |
| 2026-05-07 14:21 | 59.16389 | 64.81876 | 14975 ft | 234 kts | 192° |
| 2026-05-07 14:21 | 59.14769 | 64.81783 | 14967 ft | 233 kts | 192° |
| 2026-05-07 14:22 | 59.13154 | 64.81701 | 15045 ft | 230 kts | 192° |
| 2026-05-07 14:22 | 59.11569 | 64.81618 | 15005 ft | 232 kts | 192° |
| 2026-05-07 14:22 | 59.09932 | 64.81524 | 14957 ft | 235 kts | 192° |
| 2026-05-07 14:22 | 59.08315 | 64.81438 | 15035 ft | 231 kts | 192° |
| 2026-05-07 14:23 | 59.06732 | 64.81360 | 15047 ft | 231 kts | 192° |
| 2026-05-07 14:23 | 59.05098 | 64.81267 | 14967 ft | 235 kts | 192° |
| 2026-05-07 14:23 | 59.03478 | 64.81177 | 15004 ft | 233 kts | 192° |
| 2026-05-07 14:23 | 59.01868 | 64.81097 | 15059 ft | 231 kts | 192° |
| 2026-05-07 14:24 | 59.00262 | 64.81008 | 14978 ft | 235 kts | 192° |
| 2026-05-07 14:24 | 58.98626 | 64.80915 | 14967 ft | 235 kts | 192° |
| 2026-05-07 14:24 | 58.96997 | 64.80833 | 15042 ft | 232 kts | 192° |
| 2026-05-07 14:24 | 58.95394 | 64.80750 | 15005 ft | 234 kts | 192° |
| 2026-05-07 14:25 | 58.93741 | 64.80656 | 14945 ft | 236 kts | 191° |
| 2026-05-07 14:25 | 58.92120 | 64.80572 | 15037 ft | 232 kts | 191° |
| 2026-05-07 14:25 | 58.90523 | 64.80493 | 15042 ft | 233 kts | 192° |
| 2026-05-07 14:25 | 58.88900 | 64.80402 | 14954 ft | 237 kts | 191° |
| 2026-05-07 14:26 | 58.87244 | 64.80312 | 15000 ft | 234 kts | 191° |
| 2026-05-07 14:26 | 58.85654 | 64.80235 | 15057 ft | 231 kts | 191° |
| 2026-05-07 14:26 | 58.84017 | 64.80148 | 14974 ft | 235 kts | 191° |
| 2026-05-07 14:26 | 58.82393 | 64.80057 | 14971 ft | 235 kts | 191° |
| 2026-05-07 14:27 | 58.80775 | 64.79977 | 15049 ft | 232 kts | 191° |
| 2026-05-07 14:27 | 58.79155 | 64.79894 | 14992 ft | 234 kts | 191° |
| 2026-05-07 14:27 | 58.77539 | 64.79803 | 14958 ft | 236 kts | 191° |
| 2026-05-07 14:27 | 58.75913 | 64.79722 | 15046 ft | 231 kts | 191° |
| 2026-05-07 14:28 | 58.74311 | 64.79642 | 15019 ft | 233 kts | 191° |
| 2026-05-07 14:28 | 58.72682 | 64.79552 | 14953 ft | 236 kts | 191° |
| 2026-05-07 14:28 | 58.71051 | 64.79466 | 15019 ft | 233 kts | 191° |
| 2026-05-07 14:28 | 58.69447 | 64.79388 | 15041 ft | 232 kts | 191° |
| 2026-05-07 14:29 | 58.67818 | 64.79299 | 14950 ft | 236 kts | 191° |
| 2026-05-07 14:29 | 58.66175 | 64.79210 | 14992 ft | 234 kts | 191° |
| 2026-05-07 14:29 | 58.64562 | 64.79131 | 15042 ft | 232 kts | 191° |
| 2026-05-07 14:29 | 58.62952 | 64.79047 | 14982 ft | 235 kts | 191° |
| 2026-05-07 14:30 | 58.61311 | 64.78957 | 14959 ft | 236 kts | 191° |
| 2026-05-07 14:30 | 58.59690 | 64.78876 | 15041 ft | 232 kts | 190° |
| 2026-05-07 14:30 | 58.58094 | 64.78797 | 15012 ft | 234 kts | 191° |
| 2026-05-07 14:30 | 58.56451 | 64.78706 | 14942 ft | 237 kts | 191° |
| 2026-05-07 14:31 | 58.54824 | 64.78622 | 15022 ft | 233 kts | 190° |
| 2026-05-07 14:31 | 58.53215 | 64.78545 | 15048 ft | 232 kts | 191° |
| 2026-05-07 14:31 | 58.51588 | 64.78458 | 14950 ft | 236 kts | 190° |
| 2026-05-07 14:31 | 58.49948 | 64.78371 | 14987 ft | 234 kts | 190° |
| 2026-05-07 14:32 | 58.48330 | 64.78294 | 15055 ft | 231 kts | 190° |
| 2026-05-07 14:32 | 58.46719 | 64.78210 | 14981 ft | 235 kts | 190° |
| 2026-05-07 14:32 | 58.45091 | 64.78121 | 14961 ft | 236 kts | 190° |
| 2026-05-07 14:32 | 58.43461 | 64.78041 | 15035 ft | 232 kts | 190° |
| 2026-05-07 14:33 | 58.41852 | 64.77961 | 15016 ft | 234 kts | 190° |
| 2026-05-07 14:33 | 58.40226 | 64.77872 | 14943 ft | 237 kts | 190° |
| 2026-05-07 14:33 | 58.38586 | 64.77788 | 15017 ft | 234 kts | 190° |
| 2026-05-07 14:33 | 58.36971 | 64.77712 | 15034 ft | 233 kts | 189° |
| 2026-05-07 14:34 | 58.35336 | 64.77625 | 14948 ft | 237 kts | 189° |
| 2026-05-07 14:34 | 58.33681 | 64.77537 | 14992 ft | 235 kts | 189° |
| 2026-05-07 14:34 | 58.32071 | 64.77459 | 15043 ft | 233 kts | 189° |
| 2026-05-07 14:34 | 58.30439 | 64.77373 | 14957 ft | 237 kts | 189° |
| 2026-05-07 14:35 | 58.28790 | 64.77284 | 14961 ft | 236 kts | 189° |
| 2026-05-07 14:35 | 58.27167 | 64.77204 | 15034 ft | 233 kts | 189° |
| 2026-05-07 14:35 | 58.25553 | 64.77123 | 14980 ft | 236 kts | 189° |
| 2026-05-07 14:35 | 58.23916 | 64.77033 | 14938 ft | 238 kts | 189° |
| 2026-05-07 14:36 | 58.22287 | 64.76951 | 15021 ft | 233 kts | 189° |
| 2026-05-07 14:36 | 58.20667 | 64.76872 | 15006 ft | 234 kts | 189° |
| 2026-05-07 14:36 | 58.19037 | 64.76784 | 14942 ft | 237 kts | 189° |
| 2026-05-07 14:36 | 58.17388 | 64.76700 | 15005 ft | 234 kts | 189° |
| 2026-05-07 14:37 | 58.15775 | 64.76622 | 15033 ft | 233 kts | 189° |
| 2026-05-07 14:37 | 58.12479 | 64.76447 | 14977 ft | 236 kts | 189° |
| 2026-05-07 14:37 | 58.10860 | 64.76369 | 15035 ft | 233 kts | 189° |
| 2026-05-07 14:38 | 58.09251 | 64.76288 | 14970 ft | 237 kts | 188° |
| 2026-05-07 14:38 | 58.07585 | 64.76199 | 14946 ft | 237 kts | 189° |
| 2026-05-07 14:38 | 58.05967 | 64.76119 | 15033 ft | 233 kts | 188° |
| 2026-05-07 14:38 | 58.04321 | 64.76148 | 15000 ft | 239 kts | 181° |
| 2026-05-07 14:39 | 58.02684 | 64.76735 | 14994 ft | 242 kts | 173° |
| 2026-05-07 14:39 | 58.01052 | 64.77489 | 14940 ft | 246 kts | 171° |
| 2026-05-07 14:39 | 57.99420 | 64.78400 | 15005 ft | 244 kts | 169° |
| 2026-05-07 14:39 | 57.97806 | 64.79374 | 15018 ft | 244 kts | 168° |
| 2026-05-07 14:40 | 57.96193 | 64.80421 | 14934 ft | 248 kts | 167° |
| 2026-05-07 14:40 | 57.94556 | 64.81508 | 14977 ft | 246 kts | 167° |
| 2026-05-07 14:40 | 57.92961 | 64.82571 | 15033 ft | 244 kts | 166° |
| 2026-05-07 14:40 | 57.91356 | 64.83632 | 14955 ft | 248 kts | 166° |
| 2026-05-07 14:41 | 57.89732 | 64.84703 | 14945 ft | 248 kts | 166° |
| 2026-05-07 14:41 | 57.88126 | 64.85767 | 15025 ft | 244 kts | 166° |
| 2026-05-07 14:41 | 57.86530 | 64.86823 | 14980 ft | 247 kts | 166° |
| 2026-05-07 14:41 | 57.84898 | 64.87896 | 14923 ft | 249 kts | 166° |
| 2026-05-07 14:42 | 57.83263 | 64.88975 | 15011 ft | 245 kts | 166° |
| 2026-05-07 14:42 | 57.81666 | 64.90031 | 15014 ft | 245 kts | 166° |
| 2026-05-07 14:42 | 57.80046 | 64.91093 | 14934 ft | 249 kts | 166° |
| 2026-05-07 14:42 | 57.78433 | 64.92152 | 14979 ft | 246 kts | 166° |
| 2026-05-07 14:43 | 57.76822 | 64.93199 | 15030 ft | 244 kts | 166° |
| 2026-05-07 14:43 | 57.75192 | 64.94230 | 14949 ft | 248 kts | 167° |
| 2026-05-07 14:43 | 57.73569 | 64.95239 | 14943 ft | 248 kts | 167° |
| 2026-05-07 14:43 | 57.71955 | 64.96247 | 15033 ft | 243 kts | 167° |
| 2026-05-07 14:44 | 57.70330 | 64.97257 | 14982 ft | 247 kts | 167° |
| 2026-05-07 14:44 | 57.68718 | 64.98257 | 14932 ft | 244 kts | 166° |
| 2026-05-07 14:44 | 57.67138 | 64.99311 | 14594 ft | 241 kts | 165° |
| 2026-05-07 14:44 | 57.65569 | 65.00429 | 14116 ft | 244 kts | 164° |
| 2026-05-07 14:45 | 57.64003 | 65.01617 | 13727 ft | 243 kts | 162° |
| 2026-05-07 14:45 | 57.62459 | 65.02824 | 13289 ft | 243 kts | 162° |
| 2026-05-07 14:45 | 57.60925 | 65.04079 | 12845 ft | 244 kts | 161° |
| 2026-05-07 14:45 | 57.59367 | 65.05309 | 12488 ft | 239 kts | 162° |
| 2026-05-07 14:46 | 57.57852 | 65.06477 | 12051 ft | 240 kts | 162° |
| 2026-05-07 14:46 | 57.56297 | 65.07632 | 11560 ft | 242 kts | 162° |
| 2026-05-07 14:46 | 57.54766 | 65.08786 | 11202 ft | 238 kts | 162° |
| 2026-05-07 14:46 | 57.53237 | 65.09946 | 10776 ft | 238 kts | 161° |
| 2026-05-07 14:47 | 57.51682 | 65.11101 | 10247 ft | 241 kts | 162° |
| 2026-05-07 14:47 | 57.50138 | 65.12271 | 9820 ft | 239 kts | 162° |
| 2026-05-07 14:47 | 57.48620 | 65.13407 | 9447 ft | 235 kts | 162° |
| 2026-05-07 14:47 | 57.47120 | 65.14494 | 9006 ft | 235 kts | 162° |
| 2026-05-07 14:48 | 57.45586 | 65.15578 | 8549 ft | 234 kts | 162° |
| 2026-05-07 14:48 | 57.44079 | 65.16616 | 8216 ft | 229 kts | 163° |
| 2026-05-07 14:48 | 57.42598 | 65.17608 | 7757 ft | 230 kts | 163° |
| 2026-05-07 14:48 | 57.41098 | 65.18597 | 7275 ft | 230 kts | 163° |
| 2026-05-07 14:49 | 57.39600 | 65.19564 | 6904 ft | 225 kts | 163° |
| 2026-05-07 14:49 | 57.38142 | 65.20482 | 6445 ft | 226 kts | 163° |
| 2026-05-07 14:49 | 57.36641 | 65.21425 | 5907 ft | 228 kts | 162° |
| 2026-05-07 14:49 | 57.35135 | 65.22315 | 5458 ft | 226 kts | 164° |
| 2026-05-07 14:50 | 57.33637 | 65.23097 | 4967 ft | 227 kts | 164° |
| 2026-05-07 14:50 | 57.32123 | 65.23862 | 4481 ft | 228 kts | 164° |
| 2026-05-07 14:50 | 57.30599 | 65.24612 | 4125 ft | 224 kts | 163° |
| 2026-05-07 14:50 | 57.29134 | 65.25343 | 3844 ft | 217 kts | 162° |
| 2026-05-07 14:51 | 57.27708 | 65.26079 | 3569 ft | 211 kts | 161° |
| 2026-05-07 14:51 | 57.26320 | 65.26814 | 3382 ft | 207 kts | 161° |
| 2026-05-07 14:51 | 57.24949 | 65.27507 | 3340 ft | 201 kts | 162° |
| 2026-05-07 14:51 | 57.23596 | 65.28117 | 3288 ft | 197 kts | 163° |
| 2026-05-07 14:52 | 57.22267 | 65.28693 | 3192 ft | 197 kts | 164° |
| 2026-05-07 14:52 | 57.20932 | 65.29227 | 3089 ft | 197 kts | 165° |
| 2026-05-07 14:52 | 57.19624 | 65.29642 | 3236 ft | 182 kts | 168° |
| 2026-05-07 14:52 | 57.18432 | 65.29970 | 3211 ft | 167 kts | 168° |
| 2026-05-07 14:53 | 57.17310 | 65.30262 | 3015 ft | 162 kts | 168° |
| 2026-05-07 14:53 | 57.16195 | 65.30573 | 2708 ft | 165 kts | 167° |
| 2026-05-07 14:53 | 57.15072 | 65.30975 | 2431 ft | 164 kts | 163° |
| 2026-05-07 14:53 | 57.13999 | 65.31444 | 2344 ft | 147 kts | 162° |
| 2026-05-07 14:54 | 57.13079 | 65.32066 | 2191 ft | 139 kts | 143° |
| 2026-05-07 14:54 | 57.12427 | 65.33281 | 1931 ft | 131 kts | 107° |
| 2026-05-07 14:54 | 57.12330 | 65.34869 | 1609 ft | 125 kts | 70° |
| 2026-05-07 14:54 | 57.12815 | 65.36074 | 1347 ft | 116 kts | 27° |
| 2026-05-07 14:55 | 57.13599 | 65.36297 | 1076 ft | 118 kts | 359° |
| 2026-05-07 14:55 | 57.14411 | 65.36352 | 929 ft | 116 kts | 4° |
| 2026-05-07 14:55 | 57.15209 | 65.36477 | 822 ft | 117 kts | 5° |
| 2026-05-07 14:55 | 57.16026 | 65.36539 | 644 ft | 119 kts | 355° |
| 2026-05-07 14:56 | 57.16833 | 65.36205 | 482 ft | 121 kts | 333° |
| 2026-05-07 14:56 | 57.17461 | 65.35200 | 342 ft | 114 kts | 316° |
| 2026-05-07 14:56 | 57.17934 | 65.34319 | 333 ft | 74 kts | 313° |
| 2026-05-07 14:56 | 57.18201 | 65.33825 | 331 ft | 36 kts | 315° |
| 2026-05-07 14:57 | 57.18331 | 65.33587 | 328 ft | 18 kts | 313° |
| 2026-05-07 14:57 | 57.18388 | 65.33478 | 326 ft | 0 kts | 314° |
| 2026-05-07 14:58 | 57.18399 | 65.33456 | 325 ft | 6 kts | 314° |
| 2026-05-07 14:58 | 57.18435 | 65.33389 | 323 ft | 11 kts | 314° |
| 2026-05-07 14:59 | 57.18521 | 65.33245 | 320 ft | 16 kts | 340° |
| 2026-05-07 14:59 | 57.18607 | 65.33338 | 317 ft | 14 kts | 48° |
| 2026-05-07 14:59 | 57.18621 | 65.33504 | 314 ft | 13 kts | 99° |
| 2026-05-07 14:59 | 57.18592 | 65.33647 | 313 ft | 11 kts | 138° |
| 2026-05-07 15:00 | 57.18540 | 65.33742 | 314 ft | 9 kts | 134° |
| 2026-05-07 15:00 | 57.18459 | 65.33892 | 317 ft | 16 kts | 135° |
| 2026-05-07 15:00 | 57.18388 | 65.34023 | 321 ft | 13 kts | 134° |
| 2026-05-07 15:00 | 57.18332 | 65.34129 | 323 ft | 12 kts | 134° |
| 2026-05-07 15:01 | 57.18270 | 65.34249 | 324 ft | 11 kts | 122° |
| 2026-05-07 15:01 | 57.18296 | 65.34352 | 323 ft | 6 kts | 44° |
| 2026-05-07 15:01 | 57.18299 | 65.34358 | 322 ft | 0 kts | 44° |